sensor_id;sensor_type;location;lat;lon;timestamp;temperature;humidity
18091;DHT22;9172;49.948;9.208;2023-03-22T00:00:10;9.80;99.90
18091;DHT22;9172;49.948;9.208;2023-03-22T00:02:43;9.80;99.90
18091;DHT22;9172;49.948;9.208;2023-03-22T00:05:13;9.80;99.90
18091;DHT22;9172;49.948;9.208;2023-03-22T00:07:41;9.80;99.90
18091;DHT22;9172;49.948;9.208;2023-03-22T00:10:10;9.80;99.90
18091;DHT22;9172;49.948;9.208;2023-03-22T00:12:39;9.90;99.90
18091;DHT22;9172;49.948;9.208;2023-03-22T00:15:10;9.90;99.90
18091;DHT22;9172;49.948;9.208;2023-03-22T00:17:39;9.90;99.90
18091;DHT22;9172;49.948;9.208;2023-03-22T00:20:12;9.90;99.90
18091;DHT22;9172;49.948;9.208;2023-03-22T00:22:41;9.90;99.90
18091;DHT22;9172;49.948;9.208;2023-03-22T00:25:11;9.90;99.90
18091;DHT22;9172;49.948;9.208;2023-03-22T00:27:40;9.90;99.90
18091;DHT22;9172;49.948;9.208;2023-03-22T00:30:11;9.90;99.90
18091;DHT22;9172;49.948;9.208;2023-03-22T00:32:40;9.90;99.90
18091;DHT22;9172;49.948;9.208;2023-03-22T00:35:10;9.90;99.90
18091;DHT22;9172;49.948;9.208;2023-03-22T00:37:39;9.90;99.90
18091;DHT22;9172;49.948;9.208;2023-03-22T00:40:10;9.90;99.90
18091;DHT22;9172;49.948;9.208;2023-03-22T00:42:39;9.90;99.90
18091;DHT22;9172;49.948;9.208;2023-03-22T00:45:11;9.90;99.90
18091;DHT22;9172;49.948;9.208;2023-03-22T00:47:39;10.00;99.90
18091;DHT22;9172;49.948;9.208;2023-03-22T00:50:09;10.00;99.90
18091;DHT22;9172;49.948;9.208;2023-03-22T00:52:39;10.00;99.90
18091;DHT22;9172;49.948;9.208;2023-03-22T00:55:08;10.00;99.90
18091;DHT22;9172;49.948;9.208;2023-03-22T00:57:37;10.00;99.90
18091;DHT22;9172;49.948;9.208;2023-03-22T01:00:09;10.00;99.90
18091;DHT22;9172;49.948;9.208;2023-03-22T01:02:40;10.00;99.90
18091;DHT22;9172;49.948;9.208;2023-03-22T01:05:09;10.00;99.90
18091;DHT22;9172;49.948;9.208;2023-03-22T01:07:41;10.00;99.90
18091;DHT22;9172;49.948;9.208;2023-03-22T01:10:11;10.00;99.90
18091;DHT22;9172;49.948;9.208;2023-03-22T01:12:40;10.00;99.90
18091;DHT22;9172;49.948;9.208;2023-03-22T01:15:10;10.00;99.90
18091;DHT22;9172;49.948;9.208;2023-03-22T01:17:40;10.00;99.90
18091;DHT22;9172;49.948;9.208;2023-03-22T01:20:11;10.00;99.90
18091;DHT22;9172;49.948;9.208;2023-03-22T01:22:40;10.00;99.90
18091;DHT22;9172;49.948;9.208;2023-03-22T01:25:09;10.00;99.90
18091;DHT22;9172;49.948;9.208;2023-03-22T01:27:38;10.00;99.90
18091;DHT22;9172;49.948;9.208;2023-03-22T01:30:10;10.00;99.90
18091;DHT22;9172;49.948;9.208;2023-03-22T01:32:40;10.00;99.90
18091;DHT22;9172;49.948;9.208;2023-03-22T01:35:09;10.00;99.90
18091;DHT22;9172;49.948;9.208;2023-03-22T01:37:38;10.00;99.90
18091;DHT22;9172;49.948;9.208;2023-03-22T01:40:09;10.00;99.90
18091;DHT22;9172;49.948;9.208;2023-03-22T01:42:39;10.00;99.90
18091;DHT22;9172;49.948;9.208;2023-03-22T01:48:23;10.00;99.90
18091;DHT22;9172;49.948;9.208;2023-03-22T01:50:59;9.90;99.90
18091;DHT22;9172;49.948;9.208;2023-03-22T01:53:31;9.90;99.90
18091;DHT22;9172;49.948;9.208;2023-03-22T01:56:03;9.90;99.90
18091;DHT22;9172;49.948;9.208;2023-03-22T01:58:34;9.90;99.90
18091;DHT22;9172;49.948;9.208;2023-03-22T02:01:04;9.90;99.90
18091;DHT22;9172;49.948;9.208;2023-03-22T02:03:37;9.90;99.90
18091;DHT22;9172;49.948;9.208;2023-03-22T02:06:08;9.90;99.90
18091;DHT22;9172;49.948;9.208;2023-03-22T02:08:37;9.80;99.90
18091;DHT22;9172;49.948;9.208;2023-03-22T02:11:10;9.80;99.90
18091;DHT22;9172;49.948;9.208;2023-03-22T02:13:48;9.80;99.90
18091;DHT22;9172;49.948;9.208;2023-03-22T02:16:23;9.80;99.90
18091;DHT22;9172;49.948;9.208;2023-03-22T02:19:00;9.80;99.90
18091;DHT22;9172;49.948;9.208;2023-03-22T02:21:44;9.80;99.90
18091;DHT22;9172;49.948;9.208;2023-03-22T02:27:31;9.80;99.90
18091;DHT22;9172;49.948;9.208;2023-03-22T02:30:08;9.80;99.90
18091;DHT22;9172;49.948;9.208;2023-03-22T02:33:02;9.70;99.90
18091;DHT22;9172;49.948;9.208;2023-03-22T02:35:45;9.70;99.90
18091;DHT22;9172;49.948;9.208;2023-03-22T02:38:51;9.70;99.90
18091;DHT22;9172;49.948;9.208;2023-03-22T02:41:26;9.70;99.90
18091;DHT22;9172;49.948;9.208;2023-03-22T02:44:03;9.70;99.90
18091;DHT22;9172;49.948;9.208;2023-03-22T02:46:34;9.70;99.90
18091;DHT22;9172;49.948;9.208;2023-03-22T02:49:08;9.60;99.90
18091;DHT22;9172;49.948;9.208;2023-03-22T02:51:39;9.60;99.90
18091;DHT22;9172;49.948;9.208;2023-03-22T02:54:10;9.60;99.90
18091;DHT22;9172;49.948;9.208;2023-03-22T02:56:43;9.60;99.90
18091;DHT22;9172;49.948;9.208;2023-03-22T02:59:13;9.60;99.90
18091;DHT22;9172;49.948;9.208;2023-03-22T03:01:46;9.60;99.90
18091;DHT22;9172;49.948;9.208;2023-03-22T03:04:18;9.70;99.90
18091;DHT22;9172;49.948;9.208;2023-03-22T03:06:49;9.70;99.90
18091;DHT22;9172;49.948;9.208;2023-03-22T03:09:20;9.70;99.90
18091;DHT22;9172;49.948;9.208;2023-03-22T03:11:51;9.70;99.90
18091;DHT22;9172;49.948;9.208;2023-03-22T03:14:24;9.70;99.90
18091;DHT22;9172;49.948;9.208;2023-03-22T03:17:02;9.70;99.90
18091;DHT22;9172;49.948;9.208;2023-03-22T03:19:34;9.80;99.90
18091;DHT22;9172;49.948;9.208;2023-03-22T03:22:08;9.80;99.90
18091;DHT22;9172;49.948;9.208;2023-03-22T03:24:38;9.80;99.90
18091;DHT22;9172;49.948;9.208;2023-03-22T03:27:12;9.80;99.90
18091;DHT22;9172;49.948;9.208;2023-03-22T03:29:44;9.80;99.90
18091;DHT22;9172;49.948;9.208;2023-03-22T03:32:15;9.80;99.90
18091;DHT22;9172;49.948;9.208;2023-03-22T03:34:47;9.80;99.90
18091;DHT22;9172;49.948;9.208;2023-03-22T03:37:19;9.80;99.90
18091;DHT22;9172;49.948;9.208;2023-03-22T03:39:51;9.80;99.90
18091;DHT22;9172;49.948;9.208;2023-03-22T03:42:24;9.80;99.90
18091;DHT22;9172;49.948;9.208;2023-03-22T03:44:53;9.80;99.90
18091;DHT22;9172;49.948;9.208;2023-03-22T03:47:24;9.80;99.90
18091;DHT22;9172;49.948;9.208;2023-03-22T03:49:53;9.80;99.90
18091;DHT22;9172;49.948;9.208;2023-03-22T03:52:22;9.80;99.90
18091;DHT22;9172;49.948;9.208;2023-03-22T03:54:52;9.80;99.90
18091;DHT22;9172;49.948;9.208;2023-03-22T03:57:21;9.80;99.90
18091;DHT22;9172;49.948;9.208;2023-03-22T03:59:50;9.80;99.90
18091;DHT22;9172;49.948;9.208;2023-03-22T04:02:18;9.80;99.90
18091;DHT22;9172;49.948;9.208;2023-03-22T04:04:47;9.80;99.90
18091;DHT22;9172;49.948;9.208;2023-03-22T04:07:16;9.80;99.90
18091;DHT22;9172;49.948;9.208;2023-03-22T04:09:44;9.80;99.90
18091;DHT22;9172;49.948;9.208;2023-03-22T04:12:15;9.80;99.90
18091;DHT22;9172;49.948;9.208;2023-03-22T04:14:44;9.90;99.90
18091;DHT22;9172;49.948;9.208;2023-03-22T04:17:12;9.80;99.90
18091;DHT22;9172;49.948;9.208;2023-03-22T04:19:42;9.80;99.90
18091;DHT22;9172;49.948;9.208;2023-03-22T04:22:12;9.80;99.90
18091;DHT22;9172;49.948;9.208;2023-03-22T04:24:43;9.80;99.90
18091;DHT22;9172;49.948;9.208;2023-03-22T04:27:14;9.80;99.90
18091;DHT22;9172;49.948;9.208;2023-03-22T04:29:44;9.80;99.90
18091;DHT22;9172;49.948;9.208;2023-03-22T04:32:15;9.80;99.90
18091;DHT22;9172;49.948;9.208;2023-03-22T04:34:45;9.80;99.90
18091;DHT22;9172;49.948;9.208;2023-03-22T04:37:14;9.80;99.90
18091;DHT22;9172;49.948;9.208;2023-03-22T04:39:43;9.80;99.90
18091;DHT22;9172;49.948;9.208;2023-03-22T04:42:12;9.80;99.90
18091;DHT22;9172;49.948;9.208;2023-03-22T04:44:41;9.80;99.90
18091;DHT22;9172;49.948;9.208;2023-03-22T04:47:09;9.80;99.90
18091;DHT22;9172;49.948;9.208;2023-03-22T04:49:38;9.80;99.90
18091;DHT22;9172;49.948;9.208;2023-03-22T04:52:07;9.80;99.90
18091;DHT22;9172;49.948;9.208;2023-03-22T04:54:37;9.80;99.90
18091;DHT22;9172;49.948;9.208;2023-03-22T04:57:07;9.80;99.90
18091;DHT22;9172;49.948;9.208;2023-03-22T04:59:36;9.80;99.90
18091;DHT22;9172;49.948;9.208;2023-03-22T05:02:05;9.80;99.90
18091;DHT22;9172;49.948;9.208;2023-03-22T05:04:33;9.80;99.90
18091;DHT22;9172;49.948;9.208;2023-03-22T05:07:02;9.80;99.90
18091;DHT22;9172;49.948;9.208;2023-03-22T05:09:31;9.80;99.90
18091;DHT22;9172;49.948;9.208;2023-03-22T05:12:01;9.80;99.90
18091;DHT22;9172;49.948;9.208;2023-03-22T05:14:29;9.70;99.90
18091;DHT22;9172;49.948;9.208;2023-03-22T05:16:59;9.80;99.90
18091;DHT22;9172;49.948;9.208;2023-03-22T05:19:27;9.80;99.90
18091;DHT22;9172;49.948;9.208;2023-03-22T05:21:56;9.70;99.90
18091;DHT22;9172;49.948;9.208;2023-03-22T05:24:28;9.80;99.90
18091;DHT22;9172;49.948;9.208;2023-03-22T05:26:59;9.70;99.90
18091;DHT22;9172;49.948;9.208;2023-03-22T05:29:28;9.70;99.90
18091;DHT22;9172;49.948;9.208;2023-03-22T05:31:59;9.70;99.90
18091;DHT22;9172;49.948;9.208;2023-03-22T05:34:28;9.70;99.90
18091;DHT22;9172;49.948;9.208;2023-03-22T05:36:59;9.70;99.90
18091;DHT22;9172;49.948;9.208;2023-03-22T05:39:29;9.70;99.90
18091;DHT22;9172;49.948;9.208;2023-03-22T05:41:58;9.70;99.90
18091;DHT22;9172;49.948;9.208;2023-03-22T05:44:28;9.70;99.90
18091;DHT22;9172;49.948;9.208;2023-03-22T05:46:56;9.70;99.90
18091;DHT22;9172;49.948;9.208;2023-03-22T05:49:25;9.70;99.90
18091;DHT22;9172;49.948;9.208;2023-03-22T05:51:53;9.80;99.90
18091;DHT22;9172;49.948;9.208;2023-03-22T05:54:24;9.70;99.90
18091;DHT22;9172;49.948;9.208;2023-03-22T05:59:29;9.80;99.90
18091;DHT22;9172;49.948;9.208;2023-03-22T06:01:58;9.80;99.90
18091;DHT22;9172;49.948;9.208;2023-03-22T06:04:28;9.80;99.90
18091;DHT22;9172;49.948;9.208;2023-03-22T06:06:57;9.80;99.90
18091;DHT22;9172;49.948;9.208;2023-03-22T06:09:26;9.90;99.90
18091;DHT22;9172;49.948;9.208;2023-03-22T06:11:54;9.90;99.90
18091;DHT22;9172;49.948;9.208;2023-03-22T06:14:24;9.90;99.90
18091;DHT22;9172;49.948;9.208;2023-03-22T06:16:53;9.90;99.90
18091;DHT22;9172;49.948;9.208;2023-03-22T06:19:22;10.00;99.90
18091;DHT22;9172;49.948;9.208;2023-03-22T06:21:53;10.00;99.90
18091;DHT22;9172;49.948;9.208;2023-03-22T06:24:21;10.00;99.90
18091;DHT22;9172;49.948;9.208;2023-03-22T06:26:50;10.00;99.90
18091;DHT22;9172;49.948;9.208;2023-03-22T06:29:18;10.00;99.90
18091;DHT22;9172;49.948;9.208;2023-03-22T06:31:47;10.10;99.90
18091;DHT22;9172;49.948;9.208;2023-03-22T06:34:16;10.10;99.90
18091;DHT22;9172;49.948;9.208;2023-03-22T06:36:45;10.10;99.90
18091;DHT22;9172;49.948;9.208;2023-03-22T06:39:14;10.20;99.90
18091;DHT22;9172;49.948;9.208;2023-03-22T06:41:43;10.20;99.90
18091;DHT22;9172;49.948;9.208;2023-03-22T06:44:12;10.20;99.90
18091;DHT22;9172;49.948;9.208;2023-03-22T06:46:41;10.20;99.90
18091;DHT22;9172;49.948;9.208;2023-03-22T06:49:11;10.30;99.90
18091;DHT22;9172;49.948;9.208;2023-03-22T06:51:40;10.30;99.90
18091;DHT22;9172;49.948;9.208;2023-03-22T06:54:09;10.40;99.90
18091;DHT22;9172;49.948;9.208;2023-03-22T06:56:39;10.50;99.90
18091;DHT22;9172;49.948;9.208;2023-03-22T06:59:08;10.60;99.90
18091;DHT22;9172;49.948;9.208;2023-03-22T07:01:37;10.60;99.90
18091;DHT22;9172;49.948;9.208;2023-03-22T07:04:06;10.70;99.90
18091;DHT22;9172;49.948;9.208;2023-03-22T07:06:34;10.80;99.90
18091;DHT22;9172;49.948;9.208;2023-03-22T07:09:03;10.90;99.90
18091;DHT22;9172;49.948;9.208;2023-03-22T07:11:32;10.90;99.90
18091;DHT22;9172;49.948;9.208;2023-03-22T07:14:01;11.00;99.90
18091;DHT22;9172;49.948;9.208;2023-03-22T07:16:30;11.10;99.90
18091;DHT22;9172;49.948;9.208;2023-03-22T07:18:59;11.20;99.90
18091;DHT22;9172;49.948;9.208;2023-03-22T07:21:28;11.30;99.90
18091;DHT22;9172;49.948;9.208;2023-03-22T07:23:56;11.40;99.90
18091;DHT22;9172;49.948;9.208;2023-03-22T07:26:25;11.40;99.90
18091;DHT22;9172;49.948;9.208;2023-03-22T07:28:53;11.50;99.90
18091;DHT22;9172;49.948;9.208;2023-03-22T07:31:22;11.50;99.90
18091;DHT22;9172;49.948;9.208;2023-03-22T07:33:51;11.60;99.90
18091;DHT22;9172;49.948;9.208;2023-03-22T07:36:19;11.60;99.90
18091;DHT22;9172;49.948;9.208;2023-03-22T07:38:50;11.70;99.90
18091;DHT22;9172;49.948;9.208;2023-03-22T07:41:19;11.70;99.90
18091;DHT22;9172;49.948;9.208;2023-03-22T07:43:50;11.80;99.90
18091;DHT22;9172;49.948;9.208;2023-03-22T07:46:19;11.80;99.90
18091;DHT22;9172;49.948;9.208;2023-03-22T07:48:49;11.90;99.90
18091;DHT22;9172;49.948;9.208;2023-03-22T07:51:18;11.90;99.90
18091;DHT22;9172;49.948;9.208;2023-03-22T07:53:47;12.00;99.90
18091;DHT22;9172;49.948;9.208;2023-03-22T07:56:15;11.90;99.90
18091;DHT22;9172;49.948;9.208;2023-03-22T07:58:44;11.90;99.90
18091;DHT22;9172;49.948;9.208;2023-03-22T08:01:12;11.80;99.90
18091;DHT22;9172;49.948;9.208;2023-03-22T08:03:41;11.80;99.90
18091;DHT22;9172;49.948;9.208;2023-03-22T08:06:10;11.80;99.90
18091;DHT22;9172;49.948;9.208;2023-03-22T08:08:38;11.80;99.90
18091;DHT22;9172;49.948;9.208;2023-03-22T08:11:08;11.90;99.90
18091;DHT22;9172;49.948;9.208;2023-03-22T08:13:38;11.90;99.90
18091;DHT22;9172;49.948;9.208;2023-03-22T08:16:07;11.90;99.90
18091;DHT22;9172;49.948;9.208;2023-03-22T08:18:36;12.00;99.90
18091;DHT22;9172;49.948;9.208;2023-03-22T08:21:05;12.00;99.90
18091;DHT22;9172;49.948;9.208;2023-03-22T08:23:34;12.00;99.90
18091;DHT22;9172;49.948;9.208;2023-03-22T08:26:03;12.00;99.90
18091;DHT22;9172;49.948;9.208;2023-03-22T08:28:32;12.00;99.90
18091;DHT22;9172;49.948;9.208;2023-03-22T08:31:01;12.10;99.90
18091;DHT22;9172;49.948;9.208;2023-03-22T08:33:29;12.20;99.90
18091;DHT22;9172;49.948;9.208;2023-03-22T08:36:06;12.20;99.90
18091;DHT22;9172;49.948;9.208;2023-03-22T08:38:36;12.30;99.90
18091;DHT22;9172;49.948;9.208;2023-03-22T08:41:05;12.30;99.90
18091;DHT22;9172;49.948;9.208;2023-03-22T08:43:34;12.40;99.90
18091;DHT22;9172;49.948;9.208;2023-03-22T08:46:03;12.40;99.90
18091;DHT22;9172;49.948;9.208;2023-03-22T08:48:32;12.40;99.90
18091;DHT22;9172;49.948;9.208;2023-03-22T08:51:04;12.40;99.90
18091;DHT22;9172;49.948;9.208;2023-03-22T08:53:34;12.40;99.90
18091;DHT22;9172;49.948;9.208;2023-03-22T08:56:05;12.50;99.90
18091;DHT22;9172;49.948;9.208;2023-03-22T08:58:34;12.50;99.90
18091;DHT22;9172;49.948;9.208;2023-03-22T09:01:02;12.60;99.90
18091;DHT22;9172;49.948;9.208;2023-03-22T09:03:31;12.60;99.90
18091;DHT22;9172;49.948;9.208;2023-03-22T09:06:00;12.60;99.90
18091;DHT22;9172;49.948;9.208;2023-03-22T09:08:31;12.60;99.90
18091;DHT22;9172;49.948;9.208;2023-03-22T09:10:59;12.60;99.90
18091;DHT22;9172;49.948;9.208;2023-03-22T09:13:28;12.60;99.90
18091;DHT22;9172;49.948;9.208;2023-03-22T09:15:57;12.60;99.90
18091;DHT22;9172;49.948;9.208;2023-03-22T09:18:26;12.70;99.90
18091;DHT22;9172;49.948;9.208;2023-03-22T09:20:54;12.70;99.90
18091;DHT22;9172;49.948;9.208;2023-03-22T09:23:24;12.70;99.90
18091;DHT22;9172;49.948;9.208;2023-03-22T09:25:52;12.70;99.90
18091;DHT22;9172;49.948;9.208;2023-03-22T09:28:21;12.80;99.90
18091;DHT22;9172;49.948;9.208;2023-03-22T09:30:51;12.70;99.90
18091;DHT22;9172;49.948;9.208;2023-03-22T09:33:20;12.80;99.90
18091;DHT22;9172;49.948;9.208;2023-03-22T09:35:51;12.80;99.90
18091;DHT22;9172;49.948;9.208;2023-03-22T09:38:20;12.80;99.90
18091;DHT22;9172;49.948;9.208;2023-03-22T09:40:52;12.80;99.90
18091;DHT22;9172;49.948;9.208;2023-03-22T09:43:24;12.90;99.90
18091;DHT22;9172;49.948;9.208;2023-03-22T09:45:56;12.90;99.90
18091;DHT22;9172;49.948;9.208;2023-03-22T09:48:29;12.90;99.90
18091;DHT22;9172;49.948;9.208;2023-03-22T09:51:00;12.90;99.90
18091;DHT22;9172;49.948;9.208;2023-03-22T09:53:30;12.90;99.90
18091;DHT22;9172;49.948;9.208;2023-03-22T09:56:02;13.00;99.90
18091;DHT22;9172;49.948;9.208;2023-03-22T09:58:36;13.00;99.90
18091;DHT22;9172;49.948;9.208;2023-03-22T10:01:10;13.10;99.90
18091;DHT22;9172;49.948;9.208;2023-03-22T10:04:00;13.20;99.90
18091;DHT22;9172;49.948;9.208;2023-03-22T10:06:31;13.30;99.90
18091;DHT22;9172;49.948;9.208;2023-03-22T10:09:04;13.40;99.90
18091;DHT22;9172;49.948;9.208;2023-03-22T10:11:40;13.50;99.90
18091;DHT22;9172;49.948;9.208;2023-03-22T10:14:21;13.40;99.90
18091;DHT22;9172;49.948;9.208;2023-03-22T10:16:52;13.40;99.90
18091;DHT22;9172;49.948;9.208;2023-03-22T10:19:25;13.50;99.90
18091;DHT22;9172;49.948;9.208;2023-03-22T10:21:56;13.50;99.90
18091;DHT22;9172;49.948;9.208;2023-03-22T10:24:28;13.60;99.90
18091;DHT22;9172;49.948;9.208;2023-03-22T10:26:57;13.70;99.90
18091;DHT22;9172;49.948;9.208;2023-03-22T10:29:29;13.70;99.90
18091;DHT22;9172;49.948;9.208;2023-03-22T10:32:05;13.80;99.90
18091;DHT22;9172;49.948;9.208;2023-03-22T10:34:31;13.90;99.90
18091;DHT22;9172;49.948;9.208;2023-03-22T10:37:02;13.90;99.90
18091;DHT22;9172;49.948;9.208;2023-03-22T10:39:34;14.00;99.90
18091;DHT22;9172;49.948;9.208;2023-03-22T10:42:06;14.00;99.90
18091;DHT22;9172;49.948;9.208;2023-03-22T10:44:41;14.10;99.90
18091;DHT22;9172;49.948;9.208;2023-03-22T10:47:09;14.10;99.90
18091;DHT22;9172;49.948;9.208;2023-03-22T10:49:41;14.20;99.90
18091;DHT22;9172;49.948;9.208;2023-03-22T10:52:19;14.20;99.90
18091;DHT22;9172;49.948;9.208;2023-03-22T10:54:48;14.40;99.90
18091;DHT22;9172;49.948;9.208;2023-03-22T10:57:16;14.40;99.90
18091;DHT22;9172;49.948;9.208;2023-03-22T10:59:47;14.50;99.90
18091;DHT22;9172;49.948;9.208;2023-03-22T11:02:23;14.50;99.90
18091;DHT22;9172;49.948;9.208;2023-03-22T11:04:54;14.40;99.90
18091;DHT22;9172;49.948;9.208;2023-03-22T11:07:33;14.40;99.90
18091;DHT22;9172;49.948;9.208;2023-03-22T11:10:24;14.40;99.90
18091;DHT22;9172;49.948;9.208;2023-03-22T11:13:09;14.40;99.90
18091;DHT22;9172;49.948;9.208;2023-03-22T11:15:28;14.50;99.90
18091;DHT22;9172;49.948;9.208;2023-03-22T11:18:03;14.50;99.90
18091;DHT22;9172;49.948;9.208;2023-03-22T11:20:33;14.70;99.90
18091;DHT22;9172;49.948;9.208;2023-03-22T11:23:04;14.70;99.90
18091;DHT22;9172;49.948;9.208;2023-03-22T11:25:35;14.80;99.90
18091;DHT22;9172;49.948;9.208;2023-03-22T11:28:14;14.90;99.90
18091;DHT22;9172;49.948;9.208;2023-03-22T11:30:56;14.90;99.90
18091;DHT22;9172;49.948;9.208;2023-03-22T11:33:21;14.90;99.90
18091;DHT22;9172;49.948;9.208;2023-03-22T11:35:55;15.00;99.90
18091;DHT22;9172;49.948;9.208;2023-03-22T11:38:28;15.10;99.90
18091;DHT22;9172;49.948;9.208;2023-03-22T11:41:00;15.30;99.90
18091;DHT22;9172;49.948;9.208;2023-03-22T11:43:34;15.30;99.90
18091;DHT22;9172;49.948;9.208;2023-03-22T11:46:05;15.40;99.90
18091;DHT22;9172;49.948;9.208;2023-03-22T11:48:35;15.50;99.90
18091;DHT22;9172;49.948;9.208;2023-03-22T11:51:07;15.60;99.90
18091;DHT22;9172;49.948;9.208;2023-03-22T11:53:39;15.80;99.90
18091;DHT22;9172;49.948;9.208;2023-03-22T11:56:11;15.90;99.90
18091;DHT22;9172;49.948;9.208;2023-03-22T11:58:55;16.00;99.90
18091;DHT22;9172;49.948;9.208;2023-03-22T12:01:39;16.00;99.90
18091;DHT22;9172;49.948;9.208;2023-03-22T12:04:12;16.00;99.90
18091;DHT22;9172;49.948;9.208;2023-03-22T12:06:42;15.90;99.90
18091;DHT22;9172;49.948;9.208;2023-03-22T12:09:21;16.00;99.90
18091;DHT22;9172;49.948;9.208;2023-03-22T12:11:50;16.00;99.90
18091;DHT22;9172;49.948;9.208;2023-03-22T12:14:21;16.00;99.90
18091;DHT22;9172;49.948;9.208;2023-03-22T12:16:54;15.90;99.90
18091;DHT22;9172;49.948;9.208;2023-03-22T12:19:37;15.90;99.90
18091;DHT22;9172;49.948;9.208;2023-03-22T12:22:10;15.90;99.90
18091;DHT22;9172;49.948;9.208;2023-03-22T12:24:40;15.90;99.90
18091;DHT22;9172;49.948;9.208;2023-03-22T12:27:13;15.90;99.90
18091;DHT22;9172;49.948;9.208;2023-03-22T12:29:46;15.90;99.90
18091;DHT22;9172;49.948;9.208;2023-03-22T12:32:18;15.90;99.90
18091;DHT22;9172;49.948;9.208;2023-03-22T12:34:50;15.90;99.90
18091;DHT22;9172;49.948;9.208;2023-03-22T12:37:23;15.80;99.90
18091;DHT22;9172;49.948;9.208;2023-03-22T12:39:55;15.80;99.90
18091;DHT22;9172;49.948;9.208;2023-03-22T12:42:30;15.80;99.90
18091;DHT22;9172;49.948;9.208;2023-03-22T12:45:00;15.80;99.90
18091;DHT22;9172;49.948;9.208;2023-03-22T12:47:33;15.90;99.90
18091;DHT22;9172;49.948;9.208;2023-03-22T12:50:05;16.00;99.90
18091;DHT22;9172;49.948;9.208;2023-03-22T12:52:37;16.00;99.90
18091;DHT22;9172;49.948;9.208;2023-03-22T12:55:10;16.10;99.90
18091;DHT22;9172;49.948;9.208;2023-03-22T12:57:41;16.10;99.90
18091;DHT22;9172;49.948;9.208;2023-03-22T13:00:15;16.10;99.90
18091;DHT22;9172;49.948;9.208;2023-03-22T13:02:50;16.10;99.90
18091;DHT22;9172;49.948;9.208;2023-03-22T13:05:19;16.20;99.90
18091;DHT22;9172;49.948;9.208;2023-03-22T13:07:52;16.20;99.90
18091;DHT22;9172;49.948;9.208;2023-03-22T13:10:56;16.20;99.90
18091;DHT22;9172;49.948;9.208;2023-03-22T13:13:58;16.10;99.90
18091;DHT22;9172;49.948;9.208;2023-03-22T13:16:48;16.10;99.90
18091;DHT22;9172;49.948;9.208;2023-03-22T13:19:25;16.30;99.90
18091;DHT22;9172;49.948;9.208;2023-03-22T13:22:15;16.30;99.90
18091;DHT22;9172;49.948;9.208;2023-03-22T13:25:04;16.40;99.90
18091;DHT22;9172;49.948;9.208;2023-03-22T13:27:37;16.50;99.90
18091;DHT22;9172;49.948;9.208;2023-03-22T13:30:14;16.60;99.90
18091;DHT22;9172;49.948;9.208;2023-03-22T13:32:47;16.70;99.90
18091;DHT22;9172;49.948;9.208;2023-03-22T13:35:24;16.80;99.90
18091;DHT22;9172;49.948;9.208;2023-03-22T13:38:00;16.80;99.90
18091;DHT22;9172;49.948;9.208;2023-03-22T13:40:33;16.80;99.90
18091;DHT22;9172;49.948;9.208;2023-03-22T13:46:12;16.90;99.90
18091;DHT22;9172;49.948;9.208;2023-03-22T13:51:20;16.80;99.90
18091;DHT22;9172;49.948;9.208;2023-03-22T13:53:53;16.70;99.90
18091;DHT22;9172;49.948;9.208;2023-03-22T13:56:31;16.70;99.90
18091;DHT22;9172;49.948;9.208;2023-03-22T13:59:01;16.80;99.90
18091;DHT22;9172;49.948;9.208;2023-03-22T14:01:32;16.80;99.90
18091;DHT22;9172;49.948;9.208;2023-03-22T14:06:46;16.80;99.90
18091;DHT22;9172;49.948;9.208;2023-03-22T14:09:19;16.80;99.90
18091;DHT22;9172;49.948;9.208;2023-03-22T14:11:52;16.70;99.90
18091;DHT22;9172;49.948;9.208;2023-03-22T14:14:24;16.70;99.90
18091;DHT22;9172;49.948;9.208;2023-03-22T14:16:58;16.70;99.90
18091;DHT22;9172;49.948;9.208;2023-03-22T14:19:29;16.70;99.90
18091;DHT22;9172;49.948;9.208;2023-03-22T14:22:00;16.90;99.90
18091;DHT22;9172;49.948;9.208;2023-03-22T14:24:31;16.90;99.90
18091;DHT22;9172;49.948;9.208;2023-03-22T14:27:01;17.00;99.90
18091;DHT22;9172;49.948;9.208;2023-03-22T14:29:41;17.00;99.90
18091;DHT22;9172;49.948;9.208;2023-03-22T14:32:15;17.00;99.90
18091;DHT22;9172;49.948;9.208;2023-03-22T14:34:47;17.10;99.90
18091;DHT22;9172;49.948;9.208;2023-03-22T14:37:18;17.10;99.90
18091;DHT22;9172;49.948;9.208;2023-03-22T14:39:49;17.10;99.90
18091;DHT22;9172;49.948;9.208;2023-03-22T14:42:25;17.00;99.90
18091;DHT22;9172;49.948;9.208;2023-03-22T14:44:57;16.90;99.90
18091;DHT22;9172;49.948;9.208;2023-03-22T14:50:07;16.70;99.90
18091;DHT22;9172;49.948;9.208;2023-03-22T14:52:37;16.70;99.90
18091;DHT22;9172;49.948;9.208;2023-03-22T14:55:14;16.60;99.90
18091;DHT22;9172;49.948;9.208;2023-03-22T14:57:46;16.60;99.90
18091;DHT22;9172;49.948;9.208;2023-03-22T15:00:17;16.60;99.90
18091;DHT22;9172;49.948;9.208;2023-03-22T15:02:52;16.60;99.90
18091;DHT22;9172;49.948;9.208;2023-03-22T15:05:22;16.50;99.90
18091;DHT22;9172;49.948;9.208;2023-03-22T15:07:52;16.60;99.90
18091;DHT22;9172;49.948;9.208;2023-03-22T15:10:24;16.60;99.90
18091;DHT22;9172;49.948;9.208;2023-03-22T15:12:55;16.60;99.90
18091;DHT22;9172;49.948;9.208;2023-03-22T15:15:28;16.60;99.90
18091;DHT22;9172;49.948;9.208;2023-03-22T15:17:58;16.60;99.90
18091;DHT22;9172;49.948;9.208;2023-03-22T15:20:30;16.60;99.90
18091;DHT22;9172;49.948;9.208;2023-03-22T15:23:05;16.60;99.90
18091;DHT22;9172;49.948;9.208;2023-03-22T15:25:35;16.70;99.90
18091;DHT22;9172;49.948;9.208;2023-03-22T15:28:10;16.70;99.90
18091;DHT22;9172;49.948;9.208;2023-03-22T15:30:42;16.70;99.90
18091;DHT22;9172;49.948;9.208;2023-03-22T15:33:19;16.70;99.90
18091;DHT22;9172;49.948;9.208;2023-03-22T15:35:49;16.70;99.90
18091;DHT22;9172;49.948;9.208;2023-03-22T15:38:25;16.70;99.90
18091;DHT22;9172;49.948;9.208;2023-03-22T15:40:53;16.70;99.90
18091;DHT22;9172;49.948;9.208;2023-03-22T15:43:29;16.80;99.90
18091;DHT22;9172;49.948;9.208;2023-03-22T15:46:16;16.70;99.90
18091;DHT22;9172;49.948;9.208;2023-03-22T15:48:47;16.60;99.90
18091;DHT22;9172;49.948;9.208;2023-03-22T15:51:19;16.60;99.90
18091;DHT22;9172;49.948;9.208;2023-03-22T15:53:49;16.70;99.90
18091;DHT22;9172;49.948;9.208;2023-03-22T15:56:23;16.60;99.90
18091;DHT22;9172;49.948;9.208;2023-03-22T15:58:55;16.60;99.90
18091;DHT22;9172;49.948;9.208;2023-03-22T16:01:24;16.60;99.90
18091;DHT22;9172;49.948;9.208;2023-03-22T16:03:55;16.50;99.90
18091;DHT22;9172;49.948;9.208;2023-03-22T16:06:24;16.50;99.90
18091;DHT22;9172;49.948;9.208;2023-03-22T16:08:54;16.40;99.90
18091;DHT22;9172;49.948;9.208;2023-03-22T16:11:25;16.40;99.90
18091;DHT22;9172;49.948;9.208;2023-03-22T16:13:55;16.30;99.90
18091;DHT22;9172;49.948;9.208;2023-03-22T16:16:25;16.30;99.90
18091;DHT22;9172;49.948;9.208;2023-03-22T16:18:55;16.30;99.90
18091;DHT22;9172;49.948;9.208;2023-03-22T16:21:27;16.20;99.90
18091;DHT22;9172;49.948;9.208;2023-03-22T16:23:57;16.10;99.90
18091;DHT22;9172;49.948;9.208;2023-03-22T16:26:28;16.10;99.90
18091;DHT22;9172;49.948;9.208;2023-03-22T16:28:57;16.10;99.90
18091;DHT22;9172;49.948;9.208;2023-03-22T16:31:27;16.00;99.90
18091;DHT22;9172;49.948;9.208;2023-03-22T16:33:56;16.00;99.90
18091;DHT22;9172;49.948;9.208;2023-03-22T16:36:26;15.90;99.90